sensor_id;sensor_type;location;lat;lon;timestamp;P1;durP1;ratioP1;P2;durP2;ratioP2
4616;SDS011;2321;42.704;23.384;2024-03-08T00:01:01;1.40;;;1.40;;
4616;SDS011;2321;42.704;23.384;2024-03-08T00:03:28;2.00;;;1.90;;
4616;SDS011;2321;42.704;23.384;2024-03-08T00:05:56;1.53;;;1.47;;
4616;SDS011;2321;42.704;23.384;2024-03-08T00:08:24;7.40;;;2.50;;
4616;SDS011;2321;42.704;23.384;2024-03-08T00:10:52;1.77;;;1.67;;
4616;SDS011;2321;42.704;23.384;2024-03-08T00:13:20;3.10;;;1.20;;
4616;SDS011;2321;42.704;23.384;2024-03-08T00:15:47;1.23;;;1.20;;
4616;SDS011;2321;42.704;23.384;2024-03-08T00:18:14;1.83;;;1.83;;
4616;SDS011;2321;42.704;23.384;2024-03-08T00:20:41;0.93;;;0.93;;
4616;SDS011;2321;42.704;23.384;2024-03-08T00:23:09;1.10;;;1.10;;
4616;SDS011;2321;42.704;23.384;2024-03-08T00:25:38;0.97;;;0.97;;
4616;SDS011;2321;42.704;23.384;2024-03-08T00:28:05;1.40;;;1.40;;
4616;SDS011;2321;42.704;23.384;2024-03-08T00:30:32;1.20;;;1.10;;
4616;SDS011;2321;42.704;23.384;2024-03-08T00:33:00;1.60;;;1.20;;
4616;SDS011;2321;42.704;23.384;2024-03-08T00:35:27;1.20;;;1.20;;
4616;SDS011;2321;42.704;23.384;2024-03-08T00:37:54;1.33;;;1.30;;
4616;SDS011;2321;42.704;23.384;2024-03-08T00:40:21;1.53;;;1.20;;
4616;SDS011;2321;42.704;23.384;2024-03-08T00:42:50;1.57;;;1.47;;
4616;SDS011;2321;42.704;23.384;2024-03-08T00:45:18;2.67;;;0.80;;
4616;SDS011;2321;42.704;23.384;2024-03-08T00:47:45;0.93;;;0.93;;
4616;SDS011;2321;42.704;23.384;2024-03-08T00:50:12;1.40;;;1.40;;
4616;SDS011;2321;42.704;23.384;2024-03-08T00:52:39;0.80;;;0.80;;
4616;SDS011;2321;42.704;23.384;2024-03-08T00:55:07;0.70;;;0.70;;
4616;SDS011;2321;42.704;23.384;2024-03-08T00:57:35;0.80;;;0.80;;
4616;SDS011;2321;42.704;23.384;2024-03-08T01:00:06;0.77;;;0.77;;
4616;SDS011;2321;42.704;23.384;2024-03-08T01:02:37;3.40;;;1.20;;
4616;SDS011;2321;42.704;23.384;2024-03-08T01:05:04;1.20;;;1.13;;
4616;SDS011;2321;42.704;23.384;2024-03-08T01:07:32;1.00;;;1.00;;
4616;SDS011;2321;42.704;23.384;2024-03-08T01:10:00;1.53;;;1.23;;
4616;SDS011;2321;42.704;23.384;2024-03-08T01:12:27;2.80;;;1.80;;
4616;SDS011;2321;42.704;23.384;2024-03-08T01:14:54;1.03;;;1.03;;
4616;SDS011;2321;42.704;23.384;2024-03-08T01:17:24;1.97;;;1.60;;
4616;SDS011;2321;42.704;23.384;2024-03-08T01:19:52;4.57;;;2.20;;
4616;SDS011;2321;42.704;23.384;2024-03-08T01:22:19;1.40;;;1.10;;
4616;SDS011;2321;42.704;23.384;2024-03-08T01:24:48;4.43;;;2.10;;
4616;SDS011;2321;42.704;23.384;2024-03-08T01:27:15;1.30;;;1.20;;
4616;SDS011;2321;42.704;23.384;2024-03-08T01:29:42;1.37;;;1.27;;
4616;SDS011;2321;42.704;23.384;2024-03-08T01:32:09;1.00;;;1.00;;
4616;SDS011;2321;42.704;23.384;2024-03-08T01:34:38;1.20;;;1.20;;
4616;SDS011;2321;42.704;23.384;2024-03-08T01:37:05;2.63;;;2.43;;
4616;SDS011;2321;42.704;23.384;2024-03-08T01:39:33;3.17;;;2.90;;
4616;SDS011;2321;42.704;23.384;2024-03-08T01:42:00;1.60;;;1.50;;
4616;SDS011;2321;42.704;23.384;2024-03-08T01:44:27;2.83;;;1.43;;
4616;SDS011;2321;42.704;23.384;2024-03-08T01:46:55;1.70;;;1.37;;
4616;SDS011;2321;42.704;23.384;2024-03-08T01:49:22;1.40;;;1.40;;
4616;SDS011;2321;42.704;23.384;2024-03-08T01:51:53;1.80;;;1.70;;
4616;SDS011;2321;42.704;23.384;2024-03-08T01:54:22;1.13;;;1.13;;
4616;SDS011;2321;42.704;23.384;2024-03-08T01:56:50;1.73;;;1.70;;
4616;SDS011;2321;42.704;23.384;2024-03-08T01:59:18;3.10;;;2.90;;
4616;SDS011;2321;42.704;23.384;2024-03-08T02:01:46;4.90;;;4.50;;
4616;SDS011;2321;42.704;23.384;2024-03-08T02:04:13;1.40;;;1.40;;
4616;SDS011;2321;42.704;23.384;2024-03-08T02:06:40;14.10;;;5.17;;
4616;SDS011;2321;42.704;23.384;2024-03-08T02:09:08;40.33;;;20.70;;
4616;SDS011;2321;42.704;23.384;2024-03-08T02:11:35;9.37;;;5.83;;
4616;SDS011;2321;42.704;23.384;2024-03-08T02:14:03;2.77;;;2.60;;
4616;SDS011;2321;42.704;23.384;2024-03-08T02:16:31;2.93;;;2.73;;
4616;SDS011;2321;42.704;23.384;2024-03-08T02:18:59;1.60;;;1.60;;
4616;SDS011;2321;42.704;23.384;2024-03-08T02:21:27;3.43;;;3.13;;
4616;SDS011;2321;42.704;23.384;2024-03-08T02:23:56;1.70;;;1.60;;
4616;SDS011;2321;42.704;23.384;2024-03-08T02:26:23;2.97;;;1.57;;
4616;SDS011;2321;42.704;23.384;2024-03-08T02:28:50;1.17;;;1.17;;
4616;SDS011;2321;42.704;23.384;2024-03-08T02:31:17;1.97;;;1.80;;
4616;SDS011;2321;42.704;23.384;2024-03-08T02:33:44;5.00;;;1.87;;
4616;SDS011;2321;42.704;23.384;2024-03-08T02:36:12;2.80;;;1.97;;
4616;SDS011;2321;42.704;23.384;2024-03-08T02:38:41;7.50;;;3.70;;
4616;SDS011;2321;42.704;23.384;2024-03-08T02:41:08;7.17;;;1.93;;
4616;SDS011;2321;42.704;23.384;2024-03-08T02:43:35;3.40;;;2.53;;
4616;SDS011;2321;42.704;23.384;2024-03-08T02:46:03;9.57;;;5.63;;
4616;SDS011;2321;42.704;23.384;2024-03-08T02:48:30;1.20;;;1.20;;
4616;SDS011;2321;42.704;23.384;2024-03-08T02:50:57;1.03;;;1.03;;
4616;SDS011;2321;42.704;23.384;2024-03-08T02:53:24;1.93;;;1.70;;
4616;SDS011;2321;42.704;23.384;2024-03-08T02:55:54;12.43;;;6.40;;
4616;SDS011;2321;42.704;23.384;2024-03-08T02:58:21;14.73;;;5.90;;
4616;SDS011;2321;42.704;23.384;2024-03-08T03:00:48;3.40;;;3.20;;
4616;SDS011;2321;42.704;23.384;2024-03-08T03:03:16;2.10;;;2.10;;
4616;SDS011;2321;42.704;23.384;2024-03-08T03:05:43;1.30;;;1.30;;
4616;SDS011;2321;42.704;23.384;2024-03-08T03:08:10;10.87;;;7.00;;
4616;SDS011;2321;42.704;23.384;2024-03-08T03:10:38;3.27;;;2.97;;
4616;SDS011;2321;42.704;23.384;2024-03-08T03:13:07;3.93;;;3.33;;
4616;SDS011;2321;42.704;23.384;2024-03-08T03:15:34;1.00;;;1.00;;
4616;SDS011;2321;42.704;23.384;2024-03-08T03:18:02;1.17;;;1.17;;
4616;SDS011;2321;42.704;23.384;2024-03-08T03:20:30;1.00;;;1.00;;
4616;SDS011;2321;42.704;23.384;2024-03-08T03:23:02;15.67;;;6.97;;
4616;SDS011;2321;42.704;23.384;2024-03-08T03:25:29;27.67;;;13.47;;
4616;SDS011;2321;42.704;23.384;2024-03-08T03:28:00;5.20;;;4.00;;
4616;SDS011;2321;42.704;23.384;2024-03-08T03:30:29;2.63;;;1.43;;
4616;SDS011;2321;42.704;23.384;2024-03-08T03:32:58;1.20;;;1.20;;
4616;SDS011;2321;42.704;23.384;2024-03-08T03:35:27;1.50;;;1.40;;
4616;SDS011;2321;42.704;23.384;2024-03-08T03:37:55;2.50;;;1.73;;
4616;SDS011;2321;42.704;23.384;2024-03-08T03:40:32;2.83;;;2.60;;
4616;SDS011;2321;42.704;23.384;2024-03-08T03:42:59;3.00;;;2.07;;
4616;SDS011;2321;42.704;23.384;2024-03-08T03:45:29;20.53;;;2.87;;
4616;SDS011;2321;42.704;23.384;2024-03-08T03:48:00;5.00;;;2.30;;
4616;SDS011;2321;42.704;23.384;2024-03-08T03:50:28;4.03;;;2.17;;
4616;SDS011;2321;42.704;23.384;2024-03-08T03:52:55;2.97;;;2.70;;
4616;SDS011;2321;42.704;23.384;2024-03-08T03:55:22;1.50;;;1.40;;
4616;SDS011;2321;42.704;23.384;2024-03-08T03:57:49;2.47;;;2.27;;
4616;SDS011;2321;42.704;23.384;2024-03-08T04:00:17;0.80;;;0.80;;
4616;SDS011;2321;42.704;23.384;2024-03-08T04:02:46;0.80;;;0.80;;
4616;SDS011;2321;42.704;23.384;2024-03-08T04:05:14;1.00;;;1.00;;
4616;SDS011;2321;42.704;23.384;2024-03-08T04:07:41;2.27;;;2.17;;
4616;SDS011;2321;42.704;23.384;2024-03-08T04:10:09;1.20;;;1.17;;
4616;SDS011;2321;42.704;23.384;2024-03-08T04:12:37;1.90;;;1.80;;
4616;SDS011;2321;42.704;23.384;2024-03-08T04:15:05;1.07;;;1.07;;
4616;SDS011;2321;42.704;23.384;2024-03-08T04:17:32;1.80;;;1.70;;
4616;SDS011;2321;42.704;23.384;2024-03-08T04:20:04;1.57;;;1.57;;
4616;SDS011;2321;42.704;23.384;2024-03-08T04:22:34;1.93;;;1.83;;
4616;SDS011;2321;42.704;23.384;2024-03-08T04:25:02;2.50;;;1.97;;
4616;SDS011;2321;42.704;23.384;2024-03-08T04:27:29;1.07;;;1.07;;
4616;SDS011;2321;42.704;23.384;2024-03-08T04:29:57;1.40;;;1.30;;
4616;SDS011;2321;42.704;23.384;2024-03-08T04:32:25;1.50;;;1.13;;
4616;SDS011;2321;42.704;23.384;2024-03-08T04:34:53;2.50;;;2.20;;
4616;SDS011;2321;42.704;23.384;2024-03-08T04:37:21;1.13;;;1.13;;
4616;SDS011;2321;42.704;23.384;2024-03-08T04:39:49;1.13;;;1.13;;
4616;SDS011;2321;42.704;23.384;2024-03-08T04:42:16;1.23;;;1.13;;
4616;SDS011;2321;42.704;23.384;2024-03-08T04:44:43;1.33;;;1.33;;
4616;SDS011;2321;42.704;23.384;2024-03-08T04:47:10;1.87;;;1.77;;
4616;SDS011;2321;42.704;23.384;2024-03-08T04:49:37;1.47;;;1.40;;
4616;SDS011;2321;42.704;23.384;2024-03-08T04:52:05;2.00;;;1.90;;
4616;SDS011;2321;42.704;23.384;2024-03-08T04:54:34;5.00;;;3.27;;
4616;SDS011;2321;42.704;23.384;2024-03-08T04:57:01;1.37;;;1.37;;
4616;SDS011;2321;42.704;23.384;2024-03-08T04:59:29;24.60;;;10.03;;
4616;SDS011;2321;42.704;23.384;2024-03-08T05:01:56;8.70;;;5.00;;
4616;SDS011;2321;42.704;23.384;2024-03-08T05:04:24;3.30;;;3.03;;
4616;SDS011;2321;42.704;23.384;2024-03-08T05:06:51;9.83;;;2.10;;
4616;SDS011;2321;42.704;23.384;2024-03-08T05:09:18;2.00;;;1.50;;
4616;SDS011;2321;42.704;23.384;2024-03-08T05:11:47;2.00;;;1.80;;
4616;SDS011;2321;42.704;23.384;2024-03-08T05:14:15;1.90;;;1.80;;
4616;SDS011;2321;42.704;23.384;2024-03-08T05:16:45;2.33;;;2.13;;
4616;SDS011;2321;42.704;23.384;2024-03-08T05:19:13;10.97;;;2.40;;
4616;SDS011;2321;42.704;23.384;2024-03-08T05:21:42;1.57;;;1.40;;
4616;SDS011;2321;42.704;23.384;2024-03-08T05:24:10;3.47;;;1.80;;
4616;SDS011;2321;42.704;23.384;2024-03-08T05:26:38;4.00;;;3.60;;
4616;SDS011;2321;42.704;23.384;2024-03-08T05:29:07;1.50;;;1.40;;
4616;SDS011;2321;42.704;23.384;2024-03-08T05:31:36;3.53;;;2.53;;
4616;SDS011;2321;42.704;23.384;2024-03-08T05:34:09;2.30;;;2.20;;
4616;SDS011;2321;42.704;23.384;2024-03-08T05:36:36;9.37;;;3.40;;
4616;SDS011;2321;42.704;23.384;2024-03-08T05:39:03;2.17;;;2.07;;
4616;SDS011;2321;42.704;23.384;2024-03-08T05:41:31;5.50;;;2.57;;
4616;SDS011;2321;42.704;23.384;2024-03-08T05:43:58;1.70;;;1.70;;
4616;SDS011;2321;42.704;23.384;2024-03-08T05:46:27;6.50;;;3.50;;
4616;SDS011;2321;42.704;23.384;2024-03-08T05:48:54;2.30;;;2.10;;
4616;SDS011;2321;42.704;23.384;2024-03-08T05:51:23;6.17;;;3.10;;
4616;SDS011;2321;42.704;23.384;2024-03-08T05:53:51;1.70;;;1.63;;
4616;SDS011;2321;42.704;23.384;2024-03-08T05:56:18;2.07;;;1.40;;
4616;SDS011;2321;42.704;23.384;2024-03-08T05:58:45;2.23;;;2.03;;
4616;SDS011;2321;42.704;23.384;2024-03-08T06:01:15;3.17;;;1.63;;
4616;SDS011;2321;42.704;23.384;2024-03-08T06:03:44;3.57;;;2.33;;
4616;SDS011;2321;42.704;23.384;2024-03-08T06:06:12;2.50;;;2.37;;
4616;SDS011;2321;42.704;23.384;2024-03-08T06:08:40;2.00;;;1.70;;
4616;SDS011;2321;42.704;23.384;2024-03-08T06:11:08;2.97;;;2.70;;
4616;SDS011;2321;42.704;23.384;2024-03-08T06:13:35;2.93;;;2.07;;
4616;SDS011;2321;42.704;23.384;2024-03-08T06:16:04;3.03;;;2.87;;
4616;SDS011;2321;42.704;23.384;2024-03-08T06:18:33;1.57;;;1.53;;
4616;SDS011;2321;42.704;23.384;2024-03-08T06:21:03;2.20;;;2.13;;
4616;SDS011;2321;42.704;23.384;2024-03-08T06:23:31;3.57;;;2.33;;
4616;SDS011;2321;42.704;23.384;2024-03-08T06:25:58;2.30;;;2.10;;
4616;SDS011;2321;42.704;23.384;2024-03-08T06:28:26;3.50;;;2.83;;
4616;SDS011;2321;42.704;23.384;2024-03-08T06:30:53;3.10;;;2.43;;
4616;SDS011;2321;42.704;23.384;2024-03-08T06:33:20;2.00;;;1.90;;
4616;SDS011;2321;42.704;23.384;2024-03-08T06:35:47;3.07;;;2.80;;
4616;SDS011;2321;42.704;23.384;2024-03-08T06:38:15;2.60;;;2.40;;
4616;SDS011;2321;42.704;23.384;2024-03-08T06:40:43;2.03;;;1.93;;
4616;SDS011;2321;42.704;23.384;2024-03-08T06:43:13;2.10;;;2.00;;
4616;SDS011;2321;42.704;23.384;2024-03-08T06:45:41;2.13;;;1.90;;
4616;SDS011;2321;42.704;23.384;2024-03-08T06:48:13;5.57;;;2.70;;
4616;SDS011;2321;42.704;23.384;2024-03-08T06:50:42;2.50;;;2.40;;
4616;SDS011;2321;42.704;23.384;2024-03-08T06:53:09;1.80;;;1.80;;
4616;SDS011;2321;42.704;23.384;2024-03-08T06:55:38;4.97;;;2.80;;
4616;SDS011;2321;42.704;23.384;2024-03-08T06:58:05;3.43;;;3.13;;
4616;SDS011;2321;42.704;23.384;2024-03-08T07:00:33;2.80;;;2.17;;
4616;SDS011;2321;42.704;23.384;2024-03-08T07:03:01;1.70;;;1.60;;
4616;SDS011;2321;42.704;23.384;2024-03-08T07:05:28;1.77;;;1.67;;
4616;SDS011;2321;42.704;23.384;2024-03-08T07:07:56;2.40;;;2.20;;
4616;SDS011;2321;42.704;23.384;2024-03-08T07:10:23;4.10;;;2.80;;
4616;SDS011;2321;42.704;23.384;2024-03-08T07:12:52;1.30;;;1.30;;
4616;SDS011;2321;42.704;23.384;2024-03-08T07:15:19;2.17;;;1.83;;
4616;SDS011;2321;42.704;23.384;2024-03-08T07:17:48;2.00;;;1.90;;
4616;SDS011;2321;42.704;23.384;2024-03-08T07:20:17;1.80;;;1.67;;
4616;SDS011;2321;42.704;23.384;2024-03-08T07:22:45;3.40;;;3.00;;
4616;SDS011;2321;42.704;23.384;2024-03-08T07:25:16;1.93;;;1.83;;
4616;SDS011;2321;42.704;23.384;2024-03-08T07:27:46;2.00;;;1.90;;
4616;SDS011;2321;42.704;23.384;2024-03-08T07:30:15;4.10;;;2.63;;
4616;SDS011;2321;42.704;23.384;2024-03-08T07:33:04;2.50;;;2.30;;
4616;SDS011;2321;42.704;23.384;2024-03-08T07:35:31;5.13;;;2.77;;
4616;SDS011;2321;42.704;23.384;2024-03-08T07:38:02;2.60;;;1.73;;
4616;SDS011;2321;42.704;23.384;2024-03-08T07:40:30;1.37;;;1.27;;
4616;SDS011;2321;42.704;23.384;2024-03-08T07:42:57;3.67;;;2.87;;
4616;SDS011;2321;42.704;23.384;2024-03-08T07:45:26;3.20;;;3.10;;
4616;SDS011;2321;42.704;23.384;2024-03-08T07:47:53;2.87;;;2.07;;
4616;SDS011;2321;42.704;23.384;2024-03-08T07:50:21;8.10;;;2.20;;
4616;SDS011;2321;42.704;23.384;2024-03-08T07:52:48;1.90;;;1.90;;
4616;SDS011;2321;42.704;23.384;2024-03-08T07:55:15;1.60;;;1.50;;
4616;SDS011;2321;42.704;23.384;2024-03-08T07:57:42;1.40;;;1.40;;
4616;SDS011;2321;42.704;23.384;2024-03-08T08:00:10;2.33;;;2.23;;
4616;SDS011;2321;42.704;23.384;2024-03-08T08:02:44;3.60;;;2.40;;
4616;SDS011;2321;42.704;23.384;2024-03-08T08:05:11;1.50;;;1.50;;
4616;SDS011;2321;42.704;23.384;2024-03-08T08:07:39;1.70;;;1.70;;
4616;SDS011;2321;42.704;23.384;2024-03-08T08:10:09;1.80;;;1.70;;
4616;SDS011;2321;42.704;23.384;2024-03-08T08:12:42;1.60;;;1.60;;
4616;SDS011;2321;42.704;23.384;2024-03-08T08:15:09;4.50;;;1.93;;
4616;SDS011;2321;42.704;23.384;2024-03-08T08:17:36;1.73;;;1.63;;
4616;SDS011;2321;42.704;23.384;2024-03-08T08:20:05;4.60;;;2.23;;
4616;SDS011;2321;42.704;23.384;2024-03-08T08:22:33;2.07;;;1.97;;
4616;SDS011;2321;42.704;23.384;2024-03-08T08:25:00;1.03;;;1.03;;
4616;SDS011;2321;42.704;23.384;2024-03-08T08:27:28;3.27;;;1.73;;
4616;SDS011;2321;42.704;23.384;2024-03-08T08:29:55;3.00;;;2.73;;
4616;SDS011;2321;42.704;23.384;2024-03-08T08:32:22;1.67;;;1.57;;
4616;SDS011;2321;42.704;23.384;2024-03-08T08:52:21;2.80;;;1.40;;
4616;SDS011;2321;42.704;23.384;2024-03-08T08:54:49;1.47;;;1.43;;
4616;SDS011;2321;42.704;23.384;2024-03-08T08:57:16;1.43;;;1.30;;
4616;SDS011;2321;42.704;23.384;2024-03-08T08:59:43;1.83;;;1.73;;
4616;SDS011;2321;42.704;23.384;2024-03-08T09:02:10;1.80;;;1.70;;
4616;SDS011;2321;42.704;23.384;2024-03-08T09:04:38;1.73;;;1.67;;
4616;SDS011;2321;42.704;23.384;2024-03-08T09:07:05;1.60;;;1.50;;
4616;SDS011;2321;42.704;23.384;2024-03-08T09:09:33;1.43;;;1.43;;
4616;SDS011;2321;42.704;23.384;2024-03-08T09:12:01;2.30;;;2.20;;
4616;SDS011;2321;42.704;23.384;2024-03-08T09:14:28;2.30;;;1.73;;
4616;SDS011;2321;42.704;23.384;2024-03-08T09:16:55;1.00;;;1.00;;
4616;SDS011;2321;42.704;23.384;2024-03-08T09:19:22;2.20;;;2.00;;
4616;SDS011;2321;42.704;23.384;2024-03-08T09:21:51;1.97;;;1.87;;
4616;SDS011;2321;42.704;23.384;2024-03-08T09:24:18;0.90;;;0.90;;
4616;SDS011;2321;42.704;23.384;2024-03-08T09:26:47;1.20;;;1.20;;
4616;SDS011;2321;42.704;23.384;2024-03-08T09:29:14;1.60;;;1.50;;
4616;SDS011;2321;42.704;23.384;2024-03-08T09:31:41;1.70;;;1.10;;
4616;SDS011;2321;42.704;23.384;2024-03-08T09:34:08;1.70;;;1.60;;
4616;SDS011;2321;42.704;23.384;2024-03-08T09:36:35;1.40;;;1.40;;
4616;SDS011;2321;42.704;23.384;2024-03-08T09:39:02;1.90;;;1.80;;
4616;SDS011;2321;42.704;23.384;2024-03-08T09:41:32;1.37;;;1.27;;
4616;SDS011;2321;42.704;23.384;2024-03-08T09:44:01;1.53;;;1.53;;
4616;SDS011;2321;42.704;23.384;2024-03-08T09:46:30;1.20;;;1.20;;
4616;SDS011;2321;42.704;23.384;2024-03-08T09:48:57;6.27;;;2.90;;
4616;SDS011;2321;42.704;23.384;2024-03-08T09:51:27;2.73;;;2.53;;
4616;SDS011;2321;42.704;23.384;2024-03-08T09:53:56;4.77;;;1.67;;
4616;SDS011;2321;42.704;23.384;2024-03-08T09:56:24;0.90;;;0.90;;
4616;SDS011;2321;42.704;23.384;2024-03-08T09:58:54;2.40;;;1.20;;
4616;SDS011;2321;42.704;23.384;2024-03-08T10:01:45;1.50;;;1.50;;
4616;SDS011;2321;42.704;23.384;2024-03-08T10:04:12;1.37;;;1.37;;
4616;SDS011;2321;42.704;23.384;2024-03-08T10:06:39;0.93;;;0.93;;
4616;SDS011;2321;42.704;23.384;2024-03-08T10:09:07;1.20;;;1.20;;
4616;SDS011;2321;42.704;23.384;2024-03-08T10:11:35;1.57;;;1.50;;
4616;SDS011;2321;42.704;23.384;2024-03-08T10:14:03;1.17;;;1.17;;
4616;SDS011;2321;42.704;23.384;2024-03-08T10:16:31;1.20;;;1.10;;
4616;SDS011;2321;42.704;23.384;2024-03-08T10:19:00;1.13;;;1.13;;
4616;SDS011;2321;42.704;23.384;2024-03-08T10:21:28;1.20;;;1.20;;
4616;SDS011;2321;42.704;23.384;2024-03-08T10:23:55;2.20;;;1.50;;
4616;SDS011;2321;42.704;23.384;2024-03-08T10:26:24;0.77;;;0.77;;
4616;SDS011;2321;42.704;23.384;2024-03-08T10:28:52;0.90;;;0.90;;
4616;SDS011;2321;42.704;23.384;2024-03-08T10:31:19;2.50;;;2.23;;
4616;SDS011;2321;42.704;23.384;2024-03-08T10:33:47;1.50;;;1.10;;
4616;SDS011;2321;42.704;23.384;2024-03-08T10:36:15;1.50;;;1.20;;
4616;SDS011;2321;42.704;23.384;2024-03-08T10:38:44;1.10;;;1.10;;
4616;SDS011;2321;42.704;23.384;2024-03-08T10:41:12;1.13;;;1.13;;
4616;SDS011;2321;42.704;23.384;2024-03-08T10:43:47;1.30;;;1.20;;
4616;SDS011;2321;42.704;23.384;2024-03-08T10:46:36;1.60;;;0.97;;
4616;SDS011;2321;42.704;23.384;2024-03-08T10:49:12;2.00;;;1.80;;
4616;SDS011;2321;42.704;23.384;2024-03-08T10:51:45;0.90;;;0.90;;
4616;SDS011;2321;42.704;23.384;2024-03-08T10:54:14;2.00;;;1.30;;
4616;SDS011;2321;42.704;23.384;2024-03-08T10:56:43;6.10;;;3.23;;
4616;SDS011;2321;42.704;23.384;2024-03-08T10:59:10;2.33;;;1.77;;
4616;SDS011;2321;42.704;23.384;2024-03-08T11:01:38;1.60;;;1.30;;
4616;SDS011;2321;42.704;23.384;2024-03-08T11:04:05;0.97;;;0.97;;
4616;SDS011;2321;42.704;23.384;2024-03-08T11:06:41;1.30;;;1.30;;
4616;SDS011;2321;42.704;23.384;2024-03-08T11:09:13;1.10;;;1.10;;
4616;SDS011;2321;42.704;23.384;2024-03-08T11:14:52;0.90;;;0.90;;
4616;SDS011;2321;42.704;23.384;2024-03-08T11:17:25;1.13;;;1.13;;
4616;SDS011;2321;42.704;23.384;2024-03-08T11:20:08;1.30;;;1.00;;
4616;SDS011;2321;42.704;23.384;2024-03-08T11:22:40;2.77;;;1.37;;
4616;SDS011;2321;42.704;23.384;2024-03-08T11:28:11;1.10;;;1.10;;
4616;SDS011;2321;42.704;23.384;2024-03-08T11:30:46;1.17;;;1.17;;
4616;SDS011;2321;42.704;23.384;2024-03-08T11:33:35;1.00;;;1.00;;
4616;SDS011;2321;42.704;23.384;2024-03-08T11:36:02;1.33;;;1.33;;
4616;SDS011;2321;42.704;23.384;2024-03-08T11:38:39;4.40;;;2.58;;
4616;SDS011;2321;42.704;23.384;2024-03-08T11:41:08;0.87;;;0.87;;
4616;SDS011;2321;42.704;23.384;2024-03-08T11:43:39;1.50;;;1.50;;
4616;SDS011;2321;42.704;23.384;2024-03-08T11:46:09;1.20;;;1.20;;
4616;SDS011;2321;42.704;23.384;2024-03-08T11:48:37;6.23;;;1.00;;
4616;SDS011;2321;42.704;23.384;2024-03-08T11:51:07;1.10;;;1.10;;
4616;SDS011;2321;42.704;23.384;2024-03-08T11:53:35;1.33;;;1.10;;
4616;SDS011;2321;42.704;23.384;2024-03-08T11:56:06;1.37;;;1.30;;
4616;SDS011;2321;42.704;23.384;2024-03-08T11:58:35;0.90;;;0.90;;
4616;SDS011;2321;42.704;23.384;2024-03-08T12:01:03;1.07;;;1.07;;
4616;SDS011;2321;42.704;23.384;2024-03-08T12:03:32;1.10;;;1.10;;
4616;SDS011;2321;42.704;23.384;2024-03-08T12:05:59;1.10;;;1.00;;
4616;SDS011;2321;42.704;23.384;2024-03-08T12:08:30;1.10;;;1.10;;
4616;SDS011;2321;42.704;23.384;2024-03-08T12:10:57;0.80;;;0.80;;
4616;SDS011;2321;42.704;23.384;2024-03-08T12:13:26;0.90;;;0.90;;
4616;SDS011;2321;42.704;23.384;2024-03-08T12:15:56;1.10;;;1.00;;
4616;SDS011;2321;42.704;23.384;2024-03-08T12:18:24;1.10;;;1.10;;
4616;SDS011;2321;42.704;23.384;2024-03-08T12:21:03;0.90;;;0.90;;
4616;SDS011;2321;42.704;23.384;2024-03-08T12:23:32;1.48;;;1.38;;
4616;SDS011;2321;42.704;23.384;2024-03-08T12:26:09;1.30;;;1.20;;
4616;SDS011;2321;42.704;23.384;2024-03-08T12:28:38;2.10;;;1.20;;
4616;SDS011;2321;42.704;23.384;2024-03-08T12:31:08;0.80;;;0.80;;
4616;SDS011;2321;42.704;23.384;2024-03-08T12:33:36;1.20;;;1.20;;
4616;SDS011;2321;42.704;23.384;2024-03-08T12:36:04;1.45;;;1.35;;
4616;SDS011;2321;42.704;23.384;2024-03-08T12:38:32;0.70;;;0.70;;
4616;SDS011;2321;42.704;23.384;2024-03-08T12:41:01;0.97;;;0.97;;
4616;SDS011;2321;42.704;23.384;2024-03-08T12:43:28;1.43;;;1.17;;
4616;SDS011;2321;42.704;23.384;2024-03-08T12:45:56;0.87;;;0.87;;
4616;SDS011;2321;42.704;23.384;2024-03-08T12:48:25;1.07;;;1.07;;
4616;SDS011;2321;42.704;23.384;2024-03-08T12:50:52;4.70;;;2.03;;
4616;SDS011;2321;42.704;23.384;2024-03-08T12:53:20;0.80;;;0.80;;
4616;SDS011;2321;42.704;23.384;2024-03-08T12:55:48;1.10;;;1.00;;
4616;SDS011;2321;42.704;23.384;2024-03-08T12:58:15;1.10;;;1.10;;
4616;SDS011;2321;42.704;23.384;2024-03-08T13:00:43;0.87;;;0.87;;
4616;SDS011;2321;42.704;23.384;2024-03-08T13:03:10;0.80;;;0.80;;
4616;SDS011;2321;42.704;23.384;2024-03-08T13:05:39;0.70;;;0.70;;
4616;SDS011;2321;42.704;23.384;2024-03-08T13:08:07;1.73;;;1.50;;
4616;SDS011;2321;42.704;23.384;2024-03-08T13:10:38;0.87;;;0.83;;
4616;SDS011;2321;42.704;23.384;2024-03-08T13:13:08;0.80;;;0.80;;
4616;SDS011;2321;42.704;23.384;2024-03-08T13:15:35;1.17;;;1.17;;
4616;SDS011;2321;42.704;23.384;2024-03-08T13:18:02;1.00;;;0.90;;
4616;SDS011;2321;42.704;23.384;2024-03-08T13:20:31;1.60;;;1.50;;
4616;SDS011;2321;42.704;23.384;2024-03-08T13:22:59;1.07;;;1.07;;
4616;SDS011;2321;42.704;23.384;2024-03-08T13:25:27;2.73;;;1.90;;
4616;SDS011;2321;42.704;23.384;2024-03-08T13:27:54;1.13;;;1.13;;
4616;SDS011;2321;42.704;23.384;2024-03-08T13:30:24;0.90;;;0.90;;
4616;SDS011;2321;42.704;23.384;2024-03-08T13:32:52;0.90;;;0.90;;
4616;SDS011;2321;42.704;23.384;2024-03-08T13:35:19;0.90;;;0.90;;
4616;SDS011;2321;42.704;23.384;2024-03-08T13:37:49;1.00;;;1.00;;
4616;SDS011;2321;42.704;23.384;2024-03-08T13:40:19;1.03;;;1.03;;
4616;SDS011;2321;42.704;23.384;2024-03-08T13:42:46;1.37;;;1.27;;
4616;SDS011;2321;42.704;23.384;2024-03-08T13:45:14;8.17;;;2.70;;
4616;SDS011;2321;42.704;23.384;2024-03-08T13:47:43;1.73;;;1.20;;
4616;SDS011;2321;42.704;23.384;2024-03-08T13:50:11;1.27;;;0.80;;
4616;SDS011;2321;42.704;23.384;2024-03-08T13:52:38;2.50;;;1.60;;
4616;SDS011;2321;42.704;23.384;2024-03-08T13:55:06;0.83;;;0.83;;
4616;SDS011;2321;42.704;23.384;2024-03-08T13:57:36;1.10;;;1.10;;
4616;SDS011;2321;42.704;23.384;2024-03-08T14:00:03;0.83;;;0.83;;
4616;SDS011;2321;42.704;23.384;2024-03-08T14:02:32;1.50;;;1.50;;
4616;SDS011;2321;42.704;23.384;2024-03-08T14:04:59;0.87;;;0.87;;
4616;SDS011;2321;42.704;23.384;2024-03-08T14:07:27;1.67;;;1.57;;
4616;SDS011;2321;42.704;23.384;2024-03-08T14:09:55;1.47;;;1.37;;
4616;SDS011;2321;42.704;23.384;2024-03-08T14:12:22;1.40;;;1.40;;
4616;SDS011;2321;42.704;23.384;2024-03-08T14:14:53;1.10;;;1.10;;
4616;SDS011;2321;42.704;23.384;2024-03-08T14:17:20;3.80;;;1.00;;
4616;SDS011;2321;42.704;23.384;2024-03-08T14:19:47;4.30;;;1.33;;
4616;SDS011;2321;42.704;23.384;2024-03-08T14:22:15;0.90;;;0.90;;
4616;SDS011;2321;42.704;23.384;2024-03-08T14:24:42;1.00;;;1.00;;
4616;SDS011;2321;42.704;23.384;2024-03-08T14:27:09;1.10;;;1.10;;
4616;SDS011;2321;42.704;23.384;2024-03-08T14:29:37;1.23;;;1.13;;
4616;SDS011;2321;42.704;23.384;2024-03-08T14:32:06;1.23;;;1.23;;
4616;SDS011;2321;42.704;23.384;2024-03-08T14:34:33;7.53;;;1.30;;
4616;SDS011;2321;42.704;23.384;2024-03-08T14:37:01;1.20;;;1.20;;
4616;SDS011;2321;42.704;23.384;2024-03-08T14:39:36;1.93;;;1.93;;
4616;SDS011;2321;42.704;23.384;2024-03-08T14:42:03;1.40;;;1.40;;
4616;SDS011;2321;42.704;23.384;2024-03-08T14:44:33;1.33;;;1.23;;
4616;SDS011;2321;42.704;23.384;2024-03-08T14:47:01;1.17;;;1.17;;
4616;SDS011;2321;42.704;23.384;2024-03-08T14:49:32;1.53;;;1.13;;
4616;SDS011;2321;42.704;23.384;2024-03-08T14:52:01;1.08;;;1.08;;
4616;SDS011;2321;42.704;23.384;2024-03-08T14:54:39;1.20;;;1.20;;
4616;SDS011;2321;42.704;23.384;2024-03-08T14:57:08;32.67;;;7.73;;
4616;SDS011;2321;42.704;23.384;2024-03-08T14:59:35;53.07;;;14.93;;
4616;SDS011;2321;42.704;23.384;2024-03-08T15:02:03;60.87;;;10.77;;
4616;SDS011;2321;42.704;23.384;2024-03-08T15:04:33;59.70;;;14.03;;
4616;SDS011;2321;42.704;23.384;2024-03-08T15:07:00;3.15;;;2.40;;
4616;SDS011;2321;42.704;23.384;2024-03-08T15:09:30;16.10;;;5.35;;
4616;SDS011;2321;42.704;23.384;2024-03-08T15:14:31;47.70;;;11.25;;
4616;SDS011;2321;42.704;23.384;2024-03-08T15:16:59;8.13;;;2.93;;
4616;SDS011;2321;42.704;23.384;2024-03-08T15:19:33;31.87;;;8.30;;
4616;SDS011;2321;42.704;23.384;2024-03-08T15:22:01;35.77;;;8.20;;
4616;SDS011;2321;42.704;23.384;2024-03-08T15:24:28;25.90;;;7.13;;
4616;SDS011;2321;42.704;23.384;2024-03-08T15:26:55;41.57;;;9.17;;
4616;SDS011;2321;42.704;23.384;2024-03-08T15:29:22;2.87;;;2.67;;
4616;SDS011;2321;42.704;23.384;2024-03-08T15:31:51;24.63;;;8.77;;
4616;SDS011;2321;42.704;23.384;2024-03-08T15:34:19;15.90;;;3.67;;